Time;durP1;ratioP1;P1;durP2;ratioP2;P2;SDS_P1;SDS_P2;PMS_P1;PMS_P2;Temp;Humidity;BMP_temperature;BMP_pressure;BME280_temperature;BME280_humidity;BME280_pressure;Samples;Min_cycle;Max_cycle;Signal;HPM_P1;HPM_P2
2021/05/16 00:00:31;;;;;;;;;;;7.40;99.90;;;;;;4897755;29;19991;-77
2021/05/16 00:03:03;;;;;;;;;;;7.40;99.90;;;;;;4897735;29;19924;-77
2021/05/16 00:05:31;;;;;;;;;;;7.40;99.90;;;;;;4897861;29;20058;-77
2021/05/16 00:08:02;;;;;;;;;;;7.40;99.90;;;;;;4883137;29;20457;-77
2021/05/16 00:10:29;;;;;;;;;;;7.40;99.90;;;;;;4897996;29;19923;-78
2021/05/16 00:12:57;;;;;;;;;;;7.40;99.90;;;;;;4897572;29;20563;-77
2021/05/16 00:15:24;;;;;;;;;;;7.40;99.90;;;;;;4897977;29;19973;-78
2021/05/16 00:17:51;;;;;;;;;;;7.40;99.90;;;;;;4897860;29;20459;-77
2021/05/16 00:20:28;;;;;;;;;;;7.30;99.90;;;;;;4898142;29;20015;-77
2021/05/16 00:23:01;;;;;;;;;;;7.40;99.90;;;;;;4897608;29;20017;-78
2021/05/16 00:25:28;;;;;;;;;;;7.40;99.90;;;;;;4897672;29;20027;-78
2021/05/16 00:27:56;;;;;;;;;;;7.40;99.90;;;;;;4898008;29;19974;-78
2021/05/16 00:30:27;;;;;;;;;;;7.30;99.90;;;;;;4897755;29;20017;-77
2021/05/16 00:32:54;;;;;;;;;;;7.30;99.90;;;;;;4882416;29;19924;-77
2021/05/16 00:35:28;;;;;;;;;;;7.30;99.90;;;;;;4898101;29;19987;-77
2021/05/16 00:37:55;;;;;;;;;;;7.30;99.90;;;;;;4897453;29;20339;-77
2021/05/16 00:40:22;;;;;;;;;;;7.30;99.90;;;;;;4897641;29;20339;-77
2021/05/16 00:42:54;;;;;;;;;;;7.30;99.90;;;;;;4897545;29;20018;-78
2021/05/16 00:45:21;;;;;;;;;;;7.30;99.90;;;;;;4882183;29;19954;-78
2021/05/16 00:47:49;;;;;;;;;;;7.30;99.90;;;;;;4881799;29;20046;-78
2021/05/16 00:50:17;;;;;;;;;;;7.30;99.90;;;;;;4896640;29;20367;-78
2021/05/16 00:52:45;;;;;;;;;;;7.30;99.90;;;;;;4897537;29;20002;-78
2021/05/16 00:55:17;;;;;;;;;;;7.30;99.90;;;;;;4897189;29;20021;-78
2021/05/16 00:57:49;;;;;;;;;;;7.30;99.90;;;;;;4882485;29;19923;-77
2021/05/16 01:00:18;;;;;;;;;;;7.20;99.90;;;;;;4881422;29;19927;-78
2021/05/16 01:02:45;;;;;;;;;;;7.30;99.90;;;;;;4881522;29;19930;-77
2021/05/16 01:05:20;;;;;;;;;;;7.20;99.90;;;;;;4882652;29;19931;-77
2021/05/16 01:07:52;;;;;;;;;;;7.30;99.90;;;;;;4897147;29;20404;-77
2021/05/16 01:10:19;;;;;;;;;;;7.30;99.90;;;;;;4881227;29;20022;-77
2021/05/16 01:12:49;;;;;;;;;;;7.30;99.90;;;;;;4897171;29;20006;-77
2021/05/16 01:15:18;;;;;;;;;;;7.30;99.90;;;;;;4896775;29;20090;-77
2021/05/16 01:17:51;;;;;;;;;;;7.30;99.90;;;;;;4897221;29;20306;-78
2021/05/16 01:20:19;;;;;;;;;;;7.30;99.90;;;;;;4897162;29;19927;-77
2021/05/16 01:22:55;;;;;;;;;;;7.30;99.90;;;;;;4896528;29;19923;-77
2021/05/16 01:25:23;;;;;;;;;;;7.40;99.90;;;;;;4898448;29;19923;-77
2021/05/16 01:27:55;;;;;;;;;;;7.40;99.90;;;;;;4881988;29;19924;-78
2021/05/16 01:30:22;;;;;;;;;;;7.30;99.90;;;;;;4896828;29;20015;-77
2021/05/16 01:32:54;;;;;;;;;;;7.30;99.90;;;;;;4896685;29;20411;-77
2021/05/16 01:35:21;;;;;;;;;;;7.30;99.90;;;;;;4897047;29;20401;-78
2021/05/16 01:37:53;;;;;;;;;;;7.30;99.90;;;;;;4881853;29;19994;-77
2021/05/16 01:40:20;;;;;;;;;;;7.30;99.90;;;;;;4897094;29;20390;-77
2021/05/16 01:42:52;;;;;;;;;;;7.30;99.90;;;;;;4897254;29;19924;-77
2021/05/16 01:45:20;;;;;;;;;;;7.20;99.90;;;;;;4898248;29;19951;-77
2021/05/16 01:47:47;;;;;;;;;;;7.30;99.90;;;;;;4881526;29;19966;-78
2021/05/16 01:50:15;;;;;;;;;;;7.20;99.90;;;;;;4897258;29;19924;-78
2021/05/16 01:52:47;;;;;;;;;;;7.20;99.90;;;;;;4897015;29;19958;-77
2021/05/16 01:55:19;;;;;;;;;;;7.30;99.90;;;;;;4896814;29;19924;-77
2021/05/16 01:57:51;;;;;;;;;;;7.30;99.90;;;;;;4882207;29;19966;-77
2021/05/16 02:00:30;;;;;;;;;;;7.20;99.90;;;;;;4882179;29;19929;-78
2021/05/16 02:03:01;;;;;;;;;;;7.30;99.90;;;;;;4908832;29;19923;-79
2021/05/16 02:05:39;;;;;;;;;;;7.20;99.90;;;;;;4893707;29;19931;-80
2021/05/16 02:08:06;;;;;;;;;;;7.20;99.90;;;;;;4906777;29;19931;-79
2021/05/16 02:10:35;;;;;;;;;;;7.30;99.90;;;;;;4901381;29;19958;-77
2021/05/16 02:13:08;;;;;;;;;;;7.30;99.90;;;;;;4885528;29;19923;-77
2021/05/16 02:15:47;;;;;;;;;;;7.20;99.90;;;;;;4900611;29;20394;-77
2021/05/16 02:18:16;;;;;;;;;;;7.30;99.90;;;;;;4900035;29;19969;-78
2021/05/16 02:20:45;;;;;;;;;;;7.30;99.90;;;;;;4884574;29;19923;-77
2021/05/16 02:23:12;;;;;;;;;;;7.20;99.90;;;;;;4899585;29;20305;-77
2021/05/16 02:25:41;;;;;;;;;;;7.20;99.90;;;;;;4899886;29;19958;-77
2021/05/16 02:28:16;;;;;;;;;;;7.30;99.90;;;;;;4885242;29;20018;-77
2021/05/16 02:30:51;;;;;;;;;;;7.20;99.90;;;;;;4899801;29;19924;-79
2021/05/16 02:33:18;;;;;;;;;;;7.20;99.90;;;;;;4884219;29;19930;-78
2021/05/16 02:35:50;;;;;;;;;;;7.20;99.90;;;;;;4899784;29;20363;-77
2021/05/16 02:38:22;;;;;;;;;;;7.20;99.90;;;;;;4885121;29;19931;-77
2021/05/16 02:40:49;;;;;;;;;;;7.20;99.90;;;;;;4899705;29;19927;-78
2021/05/16 02:43:16;;;;;;;;;;;7.20;99.90;;;;;;4899500;29;19924;-77
2021/05/16 02:45:43;;;;;;;;;;;7.10;99.90;;;;;;4884479;29;19923;-77
2021/05/16 02:48:19;;;;;;;;;;;7.10;99.90;;;;;;4885170;29;19923;-77
2021/05/16 02:50:46;;;;;;;;;;;7.10;99.90;;;;;;4899952;29;19924;-77
2021/05/16 02:53:20;;;;;;;;;;;7.20;99.90;;;;;;4899461;29;19930;-78
2021/05/16 02:56:00;;;;;;;;;;;7.20;99.90;;;;;;4885627;29;19927;-77
2021/05/16 02:58:28;;;;;;;;;;;7.20;99.90;;;;;;4884203;29;19934;-79
2021/05/16 03:01:00;;;;;;;;;;;7.20;99.90;;;;;;4899798;29;20014;-77
2021/05/16 03:03:35;;;;;;;;;;;7.20;99.90;;;;;;4885024;29;19930;-77
2021/05/16 03:06:06;;;;;;;;;;;7.20;99.90;;;;;;4899461;29;20010;-79
2021/05/16 03:08:38;;;;;;;;;;;7.10;99.90;;;;;;4899512;29;20298;-77
2021/05/16 03:11:10;;;;;;;;;;;7.10;99.90;;;;;;4884401;29;19923;-77
2021/05/16 03:13:45;;;;;;;;;;;7.00;99.90;;;;;;4883678;29;20373;-78
2021/05/16 03:16:24;;;;;;;;;;;7.00;99.90;;;;;;4885494;29;20046;-77
2021/05/16 03:18:51;;;;;;;;;;;7.00;99.90;;;;;;4899059;29;19958;-77
2021/05/16 03:21:22;;;;;;;;;;;7.00;99.90;;;;;;4899179;29;19975;-77
2021/05/16 03:23:54;;;;;;;;;;;7.10;99.90;;;;;;4899016;29;19967;-78
2021/05/16 03:26:21;;;;;;;;;;;7.10;99.90;;;;;;4883562;29;20379;-77
2021/05/16 03:28:48;;;;;;;;;;;7.10;99.90;;;;;;4898971;29;19974;-77
2021/05/16 03:31:14;;;;;;;;;;;7.10;99.90;;;;;;4898747;29;19966;-78
2021/05/16 03:33:41;;;;;;;;;;;7.10;99.90;;;;;;4898799;29;20037;-78
2021/05/16 03:36:08;;;;;;;;;;;7.20;99.90;;;;;;4898783;29;20490;-77
2021/05/16 03:38:34;;;;;;;;;;;7.20;99.90;;;;;;4898573;29;20018;-77
2021/05/16 03:41:01;;;;;;;;;;;7.30;99.90;;;;;;4883124;29;19927;-77
2021/05/16 03:43:33;;;;;;;;;;;7.40;99.90;;;;;;4883872;29;20027;-77
2021/05/16 03:46:04;;;;;;;;;;;7.40;99.90;;;;;;4898616;29;19923;-77
2021/05/16 03:48:36;;;;;;;;;;;7.50;99.90;;;;;;4883759;29;20017;-77
2021/05/16 03:51:04;;;;;;;;;;;7.60;99.90;;;;;;4898366;29;19951;-77
2021/05/16 03:53:37;;;;;;;;;;;7.60;99.90;;;;;;4898461;29;19983;-77
2021/05/16 03:56:09;;;;;;;;;;;7.60;99.90;;;;;;4898756;29;20030;-77
2021/05/16 03:58:36;;;;;;;;;;;7.60;99.90;;;;;;4898838;29;20434;-79
2021/05/16 04:01:08;;;;;;;;;;;7.60;99.90;;;;;;4883498;29;19934;-78
2021/05/16 04:03:35;;;;;;;;;;;7.60;99.90;;;;;;4898960;29;19923;-77
2021/05/16 04:06:07;;;;;;;;;;;7.70;99.90;;;;;;4898467;29;19969;-78
2021/05/16 04:08:33;;;;;;;;;;;7.70;99.90;;;;;;4882646;29;19929;-77
2021/05/16 04:11:00;;;;;;;;;;;7.70;99.90;;;;;;4898210;29;19959;-77
2021/05/16 04:13:27;;;;;;;;;;;7.70;99.90;;;;;;4882778;29;20030;-77
2021/05/16 04:15:53;;;;;;;;;;;7.70;99.90;;;;;;4882489;29;19959;-77
2021/05/16 04:18:20;;;;;;;;;;;7.80;99.90;;;;;;4898116;29;19935;-77
2021/05/16 04:20:47;;;;;;;;;;;7.90;99.90;;;;;;4882555;29;19965;-77
2021/05/16 04:23:14;;;;;;;;;;;7.90;99.90;;;;;;4882222;29;19933;-77
2021/05/16 04:25:41;;;;;;;;;;;8.00;99.90;;;;;;4897957;29;20298;-77
2021/05/16 04:28:12;;;;;;;;;;;8.10;99.90;;;;;;4897972;29;19971;-77
2021/05/16 04:30:39;;;;;;;;;;;8.10;99.90;;;;;;4882486;29;19923;-77
2021/05/16 04:33:06;;;;;;;;;;;8.20;99.90;;;;;;4897693;29;19970;-77
2021/05/16 04:35:33;;;;;;;;;;;8.20;99.90;;;;;;4897503;29;19979;-77
2021/05/16 04:37:59;;;;;;;;;;;8.30;99.90;;;;;;4898279;29;19962;-77
2021/05/16 04:40:26;;;;;;;;;;;8.30;99.90;;;;;;4900724;29;19969;-78
2021/05/16 04:42:58;;;;;;;;;;;8.40;99.90;;;;;;4897106;29;20398;-78
2021/05/16 04:45:30;;;;;;;;;;;8.30;99.90;;;;;;4885850;29;19985;-78
2021/05/16 04:48:01;;;;;;;;;;;8.40;99.90;;;;;;4885081;29;19974;-78
2021/05/16 04:50:28;;;;;;;;;;;8.40;99.90;;;;;;4884461;29;20034;-78
2021/05/16 04:52:55;;;;;;;;;;;8.40;99.90;;;;;;4883918;29;19926;-78
2021/05/16 04:55:21;;;;;;;;;;;8.40;99.90;;;;;;4899862;29;19966;-78
2021/05/16 04:57:53;;;;;;;;;;;8.40;99.90;;;;;;4900034;29;19923;-78
2021/05/16 05:00:25;;;;;;;;;;;8.50;99.90;;;;;;4884557;29;19930;-78
2021/05/16 05:02:51;;;;;;;;;;;8.50;99.90;;;;;;4899216;29;19955;-78
2021/05/16 05:05:18;;;;;;;;;;;8.60;99.90;;;;;;4883854;29;19977;-78
2021/05/16 05:07:45;;;;;;;;;;;8.50;99.90;;;;;;4899311;29;19962;-78
2021/05/16 05:10:11;;;;;;;;;;;8.60;99.90;;;;;;4890602;29;19923;-79
2021/05/16 05:12:38;;;;;;;;;;;8.60;99.90;;;;;;4906762;29;20386;-79
2021/05/16 05:15:06;;;;;;;;;;;8.70;99.90;;;;;;4888056;29;19923;-79
2021/05/16 05:17:32;;;;;;;;;;;8.70;99.90;;;;;;4885133;29;19967;-79
2021/05/16 05:20:04;;;;;;;;;;;8.80;99.90;;;;;;4899339;29;20026;-78
2021/05/16 05:22:31;;;;;;;;;;;8.80;99.90;;;;;;4883812;29;19927;-78
2021/05/16 05:25:03;;;;;;;;;;;8.80;99.90;;;;;;4884082;29;19923;-78
2021/05/16 05:27:35;;;;;;;;;;;8.90;99.90;;;;;;4884437;29;19929;-78
2021/05/16 05:30:03;;;;;;;;;;;8.90;99.90;;;;;;4883485;29;19965;-78
2021/05/16 05:32:34;;;;;;;;;;;8.90;99.90;;;;;;4899034;29;20350;-78
2021/05/16 05:35:01;;;;;;;;;;;9.00;99.90;;;;;;4916612;29;20417;-78
2021/05/16 05:37:33;;;;;;;;;;;9.00;99.90;;;;;;4917942;29;19923;-78
2021/05/16 05:39:59;;;;;;;;;;;9.10;99.90;;;;;;4886775;29;20015;-78
2021/05/16 05:42:26;;;;;;;;;;;9.10;99.90;;;;;;4919723;29;19927;-78
2021/05/16 05:44:53;;;;;;;;;;;9.10;99.90;;;;;;4886907;29;20429;-79
2021/05/16 05:47:20;;;;;;;;;;;9.10;99.90;;;;;;4868939;29;19963;-77
2021/05/16 05:49:46;;;;;;;;;;;9.20;99.90;;;;;;4874151;29;19997;-78
2021/05/16 05:52:13;;;;;;;;;;;9.20;99.90;;;;;;4877380;29;20014;-78
2021/05/16 05:54:45;;;;;;;;;;;9.20;99.90;;;;;;4903102;29;20029;-78
2021/05/16 05:57:11;;;;;;;;;;;9.30;99.90;;;;;;4871486;29;20374;-79
2021/05/16 05:59:43;;;;;;;;;;;9.30;99.90;;;;;;4868877;29;20030;-78
2021/05/16 06:02:10;;;;;;;;;;;9.50;99.90;;;;;;4883487;29;20295;-79
2021/05/16 06:04:36;;;;;;;;;;;9.50;99.90;;;;;;4883928;29;20405;-78
2021/05/16 06:07:04;;;;;;;;;;;9.60;99.90;;;;;;4869091;29;20093;-78
2021/05/16 06:09:32;;;;;;;;;;;9.60;99.90;;;;;;4867859;29;19970;-78
2021/05/16 06:12:05;;;;;;;;;;;9.60;99.90;;;;;;4883126;29;20017;-77
2021/05/16 06:14:33;;;;;;;;;;;9.70;99.90;;;;;;4883825;29;19958;-77
2021/05/16 06:16:59;;;;;;;;;;;9.70;99.90;;;;;;4885079;29;20335;-77
2021/05/16 06:19:26;;;;;;;;;;;9.70;99.90;;;;;;4869690;29;20025;-78
2021/05/16 06:21:53;;;;;;;;;;;9.70;99.90;;;;;;4885113;29;20030;-78
2021/05/16 06:24:20;;;;;;;;;;;9.90;99.90;;;;;;4869295;29;19923;-77
2021/05/16 06:26:47;;;;;;;;;;;10.00;99.90;;;;;;4883954;29;19930;-77
2021/05/16 06:29:18;;;;;;;;;;;10.10;99.90;;;;;;4869021;29;19927;-78
2021/05/16 06:31:45;;;;;;;;;;;10.20;99.90;;;;;;4868110;29;20003;-78
2021/05/16 06:34:12;;;;;;;;;;;10.40;99.90;;;;;;4900217;29;20018;-79
2021/05/16 06:36:39;;;;;;;;;;;10.50;99.90;;;;;;4867942;29;19959;-78
2021/05/16 06:39:06;;;;;;;;;;;10.50;99.90;;;;;;4883288;29;20443;-78
2021/05/16 06:41:38;;;;;;;;;;;10.60;99.90;;;;;;4868613;29;20044;-78
2021/05/16 06:44:05;;;;;;;;;;;10.60;99.90;;;;;;4883097;29;20029;-78
2021/05/16 06:46:32;;;;;;;;;;;10.60;99.90;;;;;;4883094;29;19928;-77
2021/05/16 06:48:58;;;;;;;;;;;10.60;99.90;;;;;;4867323;29;20371;-78
2021/05/16 06:51:30;;;;;;;;;;;10.60;99.90;;;;;;4883806;29;19978;-78
2021/05/16 06:54:02;;;;;;;;;;;10.70;99.90;;;;;;4868393;29;19954;-78
2021/05/16 06:56:34;;;;;;;;;;;10.70;99.90;;;;;;4868164;29;19923;-78
2021/05/16 06:59:06;;;;;;;;;;;10.70;99.90;;;;;;4867859;29;19923;-78
2021/05/16 07:01:33;;;;;;;;;;;10.70;99.90;;;;;;4867011;29;20420;-78
2021/05/16 07:03:59;;;;;;;;;;;10.80;99.90;;;;;;4866491;29;19923;-78
2021/05/16 07:06:26;;;;;;;;;;;11.00;99.90;;;;;;4866943;29;20034;-78
2021/05/16 07:08:53;;;;;;;;;;;11.10;99.90;;;;;;4899165;29;19923;-77
2021/05/16 07:11:19;;;;;;;;;;;11.20;99.90;;;;;;4882306;29;20376;-78
2021/05/16 07:13:46;;;;;;;;;;;11.10;99.90;;;;;;4898765;29;19963;-78
2021/05/16 07:16:13;;;;;;;;;;;11.20;99.90;;;;;;4867067;29;19967;-78
2021/05/16 07:18:44;;;;;;;;;;;11.30;99.90;;;;;;4869375;29;20377;-79
2021/05/16 07:21:12;;;;;;;;;;;11.30;99.90;;;;;;4870214;29;19923;-79
2021/05/16 07:23:39;;;;;;;;;;;11.30;99.90;;;;;;4872413;29;20347;-79
2021/05/16 07:26:06;;;;;;;;;;;11.30;99.90;;;;;;4871565;29;19995;-78
2021/05/16 07:28:36;;;;;;;;;;;11.40;99.90;;;;;;4872625;29;19924;-81
2021/05/16 07:31:02;;;;;;;;;;;11.60;99.90;;;;;;4870888;29;20302;-79
2021/05/16 07:33:29;;;;;;;;;;;11.70;99.90;;;;;;4869977;29;19927;-79
2021/05/16 07:35:57;;;;;;;;;;;11.70;99.90;;;;;;4886449;29;19958;-79
2021/05/16 07:38:24;;;;;;;;;;;11.90;99.90;;;;;;4886299;29;19924;-80
2021/05/16 07:40:51;;;;;;;;;;;12.00;99.90;;;;;;4870888;29;19971;-79
2021/05/16 07:43:17;;;;;;;;;;;12.00;99.90;;;;;;4871448;29;19973;-79
2021/05/16 07:45:44;;;;;;;;;;;12.10;99.90;;;;;;4869963;29;20461;-79
2021/05/16 07:48:11;;;;;;;;;;;12.00;99.90;;;;;;4869944;29;20026;-79
2021/05/16 07:50:38;;;;;;;;;;;12.10;99.90;;;;;;4870373;29;19923;-79
2021/05/16 07:53:05;;;;;;;;;;;12.30;99.90;;;;;;4870114;29;20446;-79
2021/05/16 07:55:31;;;;;;;;;;;12.40;99.90;;;;;;4887171;29;19975;-79
2021/05/16 07:57:58;;;;;;;;;;;12.40;99.90;;;;;;4871599;29;19923;-78
2021/05/16 08:00:25;;;;;;;;;;;12.50;99.90;;;;;;4870680;29;19923;-79
2021/05/16 08:02:52;;;;;;;;;;;12.70;99.90;;;;;;4871360;29;19924;-79
2021/05/16 08:05:18;;;;;;;;;;;12.80;99.90;;;;;;4888056;29;19927;-79
2021/05/16 08:07:48;;;;;;;;;;;12.90;99.90;;;;;;4885043;29;19930;-79
2021/05/16 08:10:19;;;;;;;;;;;12.90;99.90;;;;;;4904845;29;20398;-80
2021/05/16 08:12:49;;;;;;;;;;;13.00;99.90;;;;;;4886971;29;20302;-79
2021/05/16 08:15:16;;;;;;;;;;;13.20;99.90;;;;;;4885920;29;19956;-79
2021/05/16 08:17:44;;;;;;;;;;;13.20;99.90;;;;;;4889438;29;19923;-81
2021/05/16 08:20:16;;;;;;;;;;;13.20;99.90;;;;;;4889118;29;19923;-80
2021/05/16 08:23:10;;;;;;;;;;;13.20;99.90;;;;;;4885838;29;20402;-80
2021/05/16 08:25:39;;;;;;;;;;;13.30;99.90;;;;;;4868604;29;20018;-79
2021/05/16 08:28:07;;;;;;;;;;;13.40;99.90;;;;;;4866296;29;19923;-79
2021/05/16 08:30:37;;;;;;;;;;;13.40;99.90;;;;;;4868988;29;20012;-80
2021/05/16 08:33:04;;;;;;;;;;;13.30;99.90;;;;;;4869285;29;19927;-79
2021/05/16 08:39:34;;;;;;;;;;;13.20;99.90;;;;;;4917226;29;20342;-82
2021/05/16 08:42:05;;;;;;;;;;;13.50;99.90;;;;;;4898970;29;19923;-82
2021/05/16 08:44:57;;;;;;;;;;;13.50;99.90;;;;;;4893904;29;20019;-82
2021/05/16 08:56:20;;;;;;;;;;;14.00;99.90;;;;;;4899003;29;19918;-80
2021/05/16 09:03:49;;;;;;;;;;;14.00;99.90;;;;;;4880408;29;19922;-80
2021/05/16 09:06:17;;;;;;;;;;;14.10;99.90;;;;;;4876901;29;19924;-79
2021/05/16 09:08:45;;;;;;;;;;;14.20;99.90;;;;;;4885635;29;19999;-81
2021/05/16 09:11:22;;;;;;;;;;;14.10;99.90;;;;;;4885679;29;19948;-79
2021/05/16 09:13:54;;;;;;;;;;;13.90;99.90;;;;;;4889234;29;19935;-79
2021/05/16 09:16:22;;;;;;;;;;;13.90;99.90;;;;;;4888567;29;19956;-80
2021/05/16 09:18:50;;;;;;;;;;;13.90;99.90;;;;;;4889359;29;20299;-79
2021/05/16 09:21:28;;;;;;;;;;;14.20;99.90;;;;;;4887653;29;20411;-80
2021/05/16 09:24:01;;;;;;;;;;;14.10;99.90;;;;;;4889569;29;19924;-79
2021/05/16 09:26:36;;;;;;;;;;;14.20;99.90;;;;;;4889722;29;20340;-80
2021/05/16 09:29:19;;;;;;;;;;;14.40;99.90;;;;;;4875603;29;20536;-82
2021/05/16 09:32:29;;;;;;;;;;;14.70;99.90;;;;;;4866902;29;19950;-77
2021/05/16 09:34:59;;;;;;;;;;;14.80;99.90;;;;;;4856638;29;20447;-79
2021/05/16 09:37:32;;;;;;;;;;;14.80;99.90;;;;;;4884911;29;20030;-79
2021/05/16 09:39:59;;;;;;;;;;;14.90;99.90;;;;;;4884151;29;20347;-79
2021/05/16 09:42:26;;;;;;;;;;;14.90;99.90;;;;;;4883284;29;20442;-81
2021/05/16 09:44:54;;;;;;;;;;;15.00;99.90;;;;;;4883905;29;19929;-79
2021/05/16 09:47:26;;;;;;;;;;;14.90;99.90;;;;;;4883221;29;19924;-79
2021/05/16 09:49:59;;;;;;;;;;;14.70;99.90;;;;;;4868921;29;19927;-78
2021/05/16 09:52:31;;;;;;;;;;;14.60;99.90;;;;;;4883050;29;19948;-79
2021/05/16 09:54:58;;;;;;;;;;;14.80;99.90;;;;;;4899043;29;19924;-79
2021/05/16 09:57:38;;;;;;;;;;;15.00;99.90;;;;;;4868162;29;19934;-78
2021/05/16 10:00:11;;;;;;;;;;;14.90;99.90;;;;;;4888133;29;19927;-80
2021/05/16 10:02:39;;;;;;;;;;;14.60;99.90;;;;;;4884192;29;19973;-80
2021/05/16 10:05:08;;;;;;;;;;;14.30;99.90;;;;;;4881997;29;20021;-78
2021/05/16 10:15:25;;;;;;;;;;;14.70;99.90;;;;;;4914431;29;20349;-80
2021/05/16 11:25:03;;;;;;;;;;;16.80;99.60;;;;;;4824044;29;19942;-79
2021/05/16 11:32:32;;;;;;;;;;;16.20;98.50;;;;;;4896777;29;19966;-79
2021/05/16 11:36:11;;;;;;;;;;;16.30;97.30;;;;;;4888724;29;19971;-80
2021/05/16 12:35:34;;;;;;;;;;;17.10;94.00;;;;;;4909329;29;19917;-80
2021/05/16 12:38:25;;;;;;;;;;;17.20;90.50;;;;;;5165767;27;20476;-78
2021/05/16 12:41:09;;;;;;;;;;;17.10;91.60;;;;;;5112900;28;20390;-79
2021/05/16 12:43:41;;;;;;;;;;;16.90;90.60;;;;;;5115081;28;19923;-80
2021/05/16 12:46:08;;;;;;;;;;;17.10;90.40;;;;;;5099312;28;19924;-78
2021/05/16 12:48:38;;;;;;;;;;;17.10;87.40;;;;;;5099317;28;19950;-79
2021/05/16 12:51:10;;;;;;;;;;;17.10;88.80;;;;;;5089044;28;20356;-79
2021/05/16 12:53:41;;;;;;;;;;;17.20;87.00;;;;;;5096139;28;19924;-79
2021/05/16 12:56:10;;;;;;;;;;;17.40;91.10;;;;;;5093041;28;19928;-79
2021/05/16 12:58:57;;;;;;;;;;;17.20;88.90;;;;;;5110468;28;20046;-79
2021/05/16 13:01:30;;;;;;;;;;;17.30;90.70;;;;;;5101805;28;19930;-79
2021/05/16 13:03:58;;;;;;;;;;;17.30;90.30;;;;;;5114027;28;19931;-79
2021/05/16 13:06:31;;;;;;;;;;;17.50;91.50;;;;;;5098666;28;19928;-79
2021/05/16 13:08:59;;;;;;;;;;;17.40;89.50;;;;;;5095573;28;19924;-79
2021/05/16 13:11:26;;;;;;;;;;;17.20;87.70;;;;;;5105808;28;19930;-77
2021/05/16 13:13:54;;;;;;;;;;;17.20;84.70;;;;;;5118497;28;20376;-77
2021/05/16 13:16:21;;;;;;;;;;;17.20;88.00;;;;;;5110307;28;19927;-78
2021/05/16 13:18:50;;;;;;;;;;;17.20;85.00;;;;;;5111319;28;19924;-80
2021/05/16 13:21:20;;;;;;;;;;;17.30;89.70;;;;;;5117888;28;19924;-82
2021/05/16 13:23:57;;;;;;;;;;;17.30;84.20;;;;;;5116328;28;19926;-81
2021/05/16 13:26:38;;;;;;;;;;;17.10;83.70;;;;;;5097265;28;19977;-80
2021/05/16 13:29:47;;;;;;;;;;;16.90;85.70;;;;;;5130621;28;19923;-79
2021/05/16 14:05:22;;;;;;;;;;;15.90;90.20;;;;;;5076437;28;19973;-80
2021/05/16 14:07:50;;;;;;;;;;;15.90;89.80;;;;;;5081326;28;20028;-80
2021/05/16 14:26:24;;;;;;;;;;;16.10;90.00;;;;;;5141129;28;19915;-79
2021/05/16 14:28:51;;;;;;;;;;;15.90;89.10;;;;;;5082287;28;19925;-80
2021/05/16 15:11:54;;;;;;;;;;;15.40;93.40;;;;;;5112626;28;19945;-80
2021/05/16 16:03:06;;;;;;;;;;;12.80;99.90;;;;;;5115400;28;19939;-80
2021/05/16 16:05:35;;;;;;;;;;;12.90;99.90;;;;;;5085325;28;19953;-80
2021/05/16 16:08:05;;;;;;;;;;;12.80;99.90;;;;;;5085848;28;19935;-80
2021/05/16 16:10:32;;;;;;;;;;;12.70;99.90;;;;;;5083373;28;19957;-80
2021/05/16 16:12:59;;;;;;;;;;;12.50;99.90;;;;;;5116697;28;19927;-80
2021/05/16 16:15:26;;;;;;;;;;;12.40;99.90;;;;;;5137634;27;19935;-80
2021/05/16 16:17:53;;;;;;;;;;;12.40;99.90;;;;;;5110430;28;19946;-80
2021/05/16 16:20:25;;;;;;;;;;;12.40;99.90;;;;;;5097617;28;19955;-80
2021/05/16 16:22:52;;;;;;;;;;;12.40;99.90;;;;;;5095628;28;19924;-80
2021/05/16 16:25:23;;;;;;;;;;;12.40;99.90;;;;;;5102153;28;20003;-80
2021/05/16 16:27:51;;;;;;;;;;;12.30;99.90;;;;;;5116248;28;19928;-80
2021/05/16 16:30:19;;;;;;;;;;;12.20;99.90;;;;;;5130466;28;19931;-80
2021/05/16 16:32:46;;;;;;;;;;;12.10;99.90;;;;;;5113161;28;19928;-79
2021/05/16 16:35:13;;;;;;;;;;;12.10;99.90;;;;;;5112170;28;19930;-79
2021/05/16 16:37:40;;;;;;;;;;;12.10;99.90;;;;;;5093327;28;19935;-80
2021/05/16 16:40:12;;;;;;;;;;;12.00;99.90;;;;;;5082432;28;19955;-80
2021/05/16 16:42:39;;;;;;;;;;;12.00;99.90;;;;;;5121723;28;19924;-80
2021/05/16 16:45:10;;;;;;;;;;;12.00;99.90;;;;;;5101357;28;19935;-79
2021/05/16 16:47:37;;;;;;;;;;;11.80;99.90;;;;;;5085723;28;20402;-80
2021/05/16 16:50:20;;;;;;;;;;;11.80;99.90;;;;;;5081642;28;19924;-80
2021/05/16 17:01:45;;;;;;;;;;;11.70;99.90;;;;;;5076855;28;19959;-80
2021/05/16 17:08:52;;;;;;;;;;;11.60;99.90;;;;;;4978379;28;19960;-80
2021/05/16 20:20:31;;;;;;;;;;;10.10;99.90;;;;;;5058769;28;19932;-79
2021/05/16 20:22:58;;;;;;;;;;;10.20;99.90;;;;;;5056873;28;19925;-79
2021/05/16 20:25:30;;;;;;;;;;;10.20;99.90;;;;;;5055871;28;19971;-79
2021/05/16 20:27:58;;;;;;;;;;;10.20;99.90;;;;;;5042953;28;19929;-78
2021/05/16 20:30:27;;;;;;;;;;;10.20;99.90;;;;;;5039229;28;19925;-79
2021/05/16 20:32:58;;;;;;;;;;;10.20;99.90;;;;;;5056607;28;19925;-78
2021/05/16 20:35:26;;;;;;;;;;;10.20;99.90;;;;;;5038786;28;20007;-79
2021/05/16 20:37:58;;;;;;;;;;;10.20;99.90;;;;;;5039459;28;19960;-79
2021/05/16 20:40:26;;;;;;;;;;;10.20;99.90;;;;;;5055432;28;20379;-81
2021/05/16 20:42:53;;;;;;;;;;;10.20;99.90;;;;;;5035311;28;19971;-78
2021/05/16 20:45:21;;;;;;;;;;;10.20;99.90;;;;;;5051160;28;20301;-78
2021/05/16 20:47:49;;;;;;;;;;;10.20;99.90;;;;;;5051434;28;20354;-78
2021/05/16 20:50:17;;;;;;;;;;;10.20;99.90;;;;;;5051224;28;19935;-79
2021/05/16 20:52:44;;;;;;;;;;;10.20;99.90;;;;;;5051507;28;19929;-78
2021/05/16 20:55:13;;;;;;;;;;;10.20;99.90;;;;;;5034578;28;20302;-78
2021/05/16 20:57:39;;;;;;;;;;;10.10;99.90;;;;;;5054676;28;19963;-79
2021/05/16 21:00:08;;;;;;;;;;;10.10;99.90;;;;;;5041185;28;20019;-80
2021/05/16 21:02:35;;;;;;;;;;;10.10;99.90;;;;;;5042196;28;20054;-79
2021/05/16 21:05:02;;;;;;;;;;;10.10;99.90;;;;;;5058087;28;20003;-79
2021/05/16 21:07:30;;;;;;;;;;;10.00;99.90;;;;;;5039559;28;20350;-79
2021/05/16 21:09:57;;;;;;;;;;;10.00;99.90;;;;;;5039574;28;20415;-79
2021/05/16 21:12:29;;;;;;;;;;;9.90;99.90;;;;;;5055925;28;19982;-79
2021/05/16 21:15:02;;;;;;;;;;;9.80;99.90;;;;;;5040234;28;19929;-79
2021/05/16 21:17:29;;;;;;;;;;;9.70;99.90;;;;;;5039453;28;20019;-79
2021/05/16 21:20:01;;;;;;;;;;;9.60;99.90;;;;;;5040232;28;19932;-79
2021/05/16 21:22:33;;;;;;;;;;;9.60;99.90;;;;;;5056480;28;20016;-78
2021/05/16 21:25:01;;;;;;;;;;;9.50;99.90;;;;;;5056720;28;20007;-79
2021/05/16 21:27:28;;;;;;;;;;;9.50;99.90;;;;;;5056427;28;19952;-79
2021/05/16 21:29:55;;;;;;;;;;;9.50;99.90;;;;;;5038955;28;20308;-79
2021/05/16 21:32:22;;;;;;;;;;;9.50;99.90;;;;;;5038825;28;19925;-79
2021/05/16 21:34:54;;;;;;;;;;;9.40;99.90;;;;;;5055170;28;20371;-78
2021/05/16 21:37:21;;;;;;;;;;;9.40;99.90;;;;;;5038656;28;20020;-79
2021/05/16 21:39:50;;;;;;;;;;;9.40;99.90;;;;;;5038643;28;20392;-79
2021/05/16 21:42:18;;;;;;;;;;;9.40;99.90;;;;;;5054525;28;19932;-78
2021/05/16 21:44:45;;;;;;;;;;;9.40;99.90;;;;;;5038297;28;19925;-79
2021/05/16 21:47:12;;;;;;;;;;;9.30;99.90;;;;;;5055087;28;19932;-80
2021/05/16 21:49:39;;;;;;;;;;;9.30;99.90;;;;;;5054920;28;19925;-79
2021/05/16 21:52:06;;;;;;;;;;;9.30;99.90;;;;;;5054878;28;20371;-79
2021/05/16 21:54:38;;;;;;;;;;;9.30;99.90;;;;;;5054543;28;20303;-79
2021/05/16 21:57:05;;;;;;;;;;;9.30;99.90;;;;;;5054777;28;19931;-79
2021/05/16 21:59:32;;;;;;;;;;;9.30;99.90;;;;;;5054860;28;19974;-79
2021/05/16 22:02:00;;;;;;;;;;;9.30;99.90;;;;;;5038126;28;19960;-78
2021/05/16 22:04:27;;;;;;;;;;;9.30;99.90;;;;;;5038256;28;19936;-80
2021/05/16 22:06:54;;;;;;;;;;;9.30;99.90;;;;;;5053787;28;20344;-79
2021/05/16 22:09:21;;;;;;;;;;;9.30;99.90;;;;;;5053139;28;19931;-79
2021/05/16 22:11:49;;;;;;;;;;;9.30;99.90;;;;;;5053477;28;20346;-79
2021/05/16 22:14:16;;;;;;;;;;;9.20;99.90;;;;;;5037070;28;19924;-79
2021/05/16 22:16:43;;;;;;;;;;;9.20;99.90;;;;;;5053405;28;19925;-78
2021/05/16 22:19:10;;;;;;;;;;;9.30;99.90;;;;;;5036906;28;19924;-79
2021/05/16 22:21:42;;;;;;;;;;;9.30;99.90;;;;;;5053697;28;19974;-79
2021/05/16 22:24:10;;;;;;;;;;;9.30;99.90;;;;;;5037905;28;19970;-79
2021/05/16 22:26:37;;;;;;;;;;;9.30;99.90;;;;;;5038070;28;19929;-79
2021/05/16 22:29:04;;;;;;;;;;;9.30;99.90;;;;;;5054343;28;19978;-78
2021/05/16 22:31:31;;;;;;;;;;;9.30;99.90;;;;;;5037570;28;19925;-78
2021/05/16 22:34:04;;;;;;;;;;;9.30;99.90;;;;;;5038865;28;20335;-78
2021/05/16 22:36:31;;;;;;;;;;;9.30;99.90;;;;;;5037668;28;19924;-79
2021/05/16 22:38:59;;;;;;;;;;;9.30;99.90;;;;;;5037725;28;20000;-78
2021/05/16 22:41:25;;;;;;;;;;;9.30;99.90;;;;;;5035179;28;19925;-78
2021/05/16 22:43:52;;;;;;;;;;;9.30;99.90;;;;;;5037708;28;20024;-78
2021/05/16 22:46:24;;;;;;;;;;;9.30;99.90;;;;;;5044192;28;19925;-78
2021/05/16 22:48:56;;;;;;;;;;;9.30;99.90;;;;;;5037816;28;19925;-79
2021/05/16 22:51:23;;;;;;;;;;;9.30;99.90;;;;;;5029799;28;20016;-79
2021/05/16 22:53:55;;;;;;;;;;;9.30;99.90;;;;;;5042848;28;19932;-78